createdAt,value
2023-04-25T00:00:19.612Z,5.89
2023-04-25T00:01:19.557Z,5.89
2023-04-25T00:02:19.585Z,5.90
2023-04-25T00:03:19.782Z,5.90
2023-04-25T00:04:19.787Z,5.91
2023-04-25T00:05:19.604Z,5.91
2023-04-25T00:06:19.524Z,5.93
2023-04-25T00:07:19.512Z,5.91
2023-04-25T00:08:19.427Z,5.93
2023-04-25T00:09:19.458Z,5.91
2023-04-25T00:10:19.414Z,5.93
2023-04-25T00:11:19.428Z,5.96
2023-04-25T00:12:19.406Z,5.97
2023-04-25T00:13:19.382Z,5.97
2023-04-25T00:14:19.365Z,5.99
2023-04-25T00:15:19.356Z,6.00
2023-04-25T00:16:19.335Z,6.01
2023-04-25T00:17:19.326Z,6.03
2023-04-25T00:18:19.502Z,6.03
2023-04-25T00:19:19.317Z,6.04
2023-04-25T00:20:19.296Z,6.04
2023-04-25T00:21:19.258Z,6.06
2023-04-25T00:22:19.292Z,6.06
2023-04-25T00:23:19.335Z,6.09
2023-04-25T00:24:19.229Z,6.09
2023-04-25T00:25:19.218Z,6.11
2023-04-25T00:26:19.200Z,6.14
2023-04-25T00:27:19.192Z,6.14
2023-04-25T00:28:19.199Z,6.17
2023-04-25T00:29:19.207Z,6.17
2023-04-25T00:30:19.195Z,6.18
2023-04-25T00:31:19.151Z,6.19
2023-04-25T00:32:19.120Z,6.21
2023-04-25T00:33:19.112Z,6.22
2023-04-25T00:34:19.092Z,6.25
2023-04-25T00:35:19.121Z,6.27
2023-04-25T00:36:19.092Z,6.28
2023-04-25T00:37:19.060Z,6.30
2023-04-25T00:38:19.074Z,6.30
2023-04-25T00:39:19.028Z,6.28
2023-04-25T00:40:19.024Z,6.30
2023-04-25T00:41:19.082Z,6.31
2023-04-25T00:42:18.984Z,6.31
2023-04-25T00:43:18.986Z,6.30
2023-04-25T00:44:18.957Z,6.30
2023-04-25T00:45:18.946Z,6.31
2023-04-25T00:46:19.019Z,6.31
2023-04-25T00:47:18.943Z,6.31
2023-04-25T00:48:18.977Z,6.31
2023-04-25T00:49:18.907Z,6.31
2023-04-25T00:50:18.885Z,6.31
2023-04-25T00:51:18.887Z,6.33
2023-04-25T00:52:18.885Z,6.33
2023-04-25T00:53:18.831Z,6.34
2023-04-25T00:54:18.822Z,6.36
2023-04-25T00:55:18.812Z,6.34
2023-04-25T00:56:18.793Z,6.36
2023-04-25T00:57:18.799Z,6.36
2023-04-25T00:58:18.789Z,6.36
2023-04-25T00:59:18.768Z,6.37
2023-04-25T01:00:18.759Z,6.38
2023-04-25T01:01:18.806Z,6.40
2023-04-25T01:02:18.807Z,6.41
2023-04-25T01:03:18.839Z,6.43
2023-04-25T01:04:18.854Z,6.41
2023-04-25T01:05:18.696Z,6.43
2023-04-25T01:06:18.681Z,6.41
2023-04-25T01:07:18.652Z,6.44
2023-04-25T01:08:18.662Z,6.44
2023-04-25T01:09:18.714Z,6.44
2023-04-25T01:10:18.619Z,6.43
2023-04-25T01:11:18.613Z,6.44
2023-04-25T01:12:18.589Z,6.46
2023-04-25T01:13:18.601Z,6.46
2023-04-25T01:14:18.567Z,6.48
2023-04-25T01:15:18.550Z,6.48
2023-04-25T01:16:18.606Z,6.49
2023-04-25T01:17:18.533Z,6.49
2023-04-25T01:18:18.552Z,6.49
2023-04-25T01:19:18.506Z,6.48
2023-04-25T01:20:18.682Z,6.48
2023-04-25T01:21:18.477Z,6.46
2023-04-25T01:22:18.475Z,6.48
2023-04-25T01:23:22.352Z,6.48
2023-04-25T01:24:18.453Z,6.48
2023-04-25T01:25:18.580Z,6.49
2023-04-25T01:26:18.413Z,6.48
2023-04-25T01:27:18.407Z,6.49
2023-04-25T01:28:18.414Z,6.49
2023-04-25T01:29:18.386Z,6.49
2023-04-25T01:30:18.361Z,6.49
2023-04-25T01:31:18.373Z,6.48
2023-04-25T01:32:18.424Z,6.48
2023-04-25T01:33:18.326Z,6.49
2023-04-25T01:34:18.309Z,6.51
2023-04-25T01:35:18.296Z,6.49
2023-04-25T01:36:18.321Z,6.49
2023-04-25T01:37:18.271Z,6.49
2023-04-25T01:38:18.256Z,6.52
2023-04-25T01:39:18.236Z,6.51
2023-04-25T01:40:18.228Z,6.49
2023-04-25T01:41:18.214Z,6.52
2023-04-25T01:42:18.272Z,6.51
2023-04-25T01:43:18.176Z,6.51
2023-04-25T01:44:18.164Z,6.51
2023-04-25T01:45:18.180Z,6.51
2023-04-25T01:46:18.197Z,6.49
2023-04-25T01:47:18.155Z,6.51
2023-04-25T01:48:18.131Z,6.49
2023-04-25T01:49:18.116Z,6.52
2023-04-25T01:50:18.131Z,6.52
2023-04-25T01:51:18.085Z,6.54
2023-04-25T01:52:18.112Z,6.54
2023-04-25T01:53:18.062Z,6.52
2023-04-25T01:54:18.038Z,6.52
2023-04-25T01:55:18.037Z,6.51
2023-04-25T01:56:18.017Z,6.51
2023-04-25T01:57:18.021Z,6.51
2023-04-25T01:58:18.013Z,6.49
2023-04-25T01:59:17.993Z,6.49
2023-04-25T02:00:17.986Z,6.49
2023-04-25T02:01:18.009Z,6.52
2023-04-25T02:02:18.039Z,6.51
2023-04-25T02:03:17.989Z,6.51
2023-04-25T02:04:18.149Z,6.52
2023-04-25T02:05:17.887Z,6.51
2023-04-25T02:06:17.890Z,6.51
2023-04-25T02:07:17.870Z,6.51
2023-04-25T02:08:17.851Z,6.52
2023-04-25T02:09:17.860Z,6.51
2023-04-25T02:10:17.837Z,6.51
2023-04-25T02:11:17.822Z,6.54
2023-04-25T02:12:17.806Z,6.54
2023-04-25T02:13:17.793Z,6.52
2023-04-25T02:14:17.809Z,6.52
2023-04-25T02:15:17.766Z,6.51
2023-04-25T02:16:17.899Z,6.51
2023-04-25T02:17:17.768Z,6.51
2023-04-25T02:18:17.793Z,6.49
2023-04-25T02:19:17.749Z,6.52
2023-04-25T02:20:17.694Z,6.51
2023-04-25T02:21:17.687Z,6.51
2023-04-25T02:22:17.686Z,6.51
2023-04-25T02:23:17.664Z,6.51
2023-04-25T02:24:17.661Z,6.49
2023-04-25T02:25:17.648Z,6.51
2023-04-25T02:26:17.645Z,6.51
2023-04-25T02:27:17.614Z,6.52
2023-04-25T02:28:17.598Z,6.52
2023-04-25T02:29:17.580Z,6.51
2023-04-25T02:30:17.571Z,6.49
2023-04-25T02:31:17.643Z,6.49
2023-04-25T02:32:17.544Z,6.49
2023-04-25T02:33:17.530Z,6.48
2023-04-25T02:34:17.523Z,6.49
2023-04-25T02:35:17.504Z,6.48
2023-04-25T02:36:17.523Z,6.46
2023-04-25T02:37:17.488Z,6.48
2023-04-25T02:38:17.485Z,6.46
2023-04-25T02:39:17.455Z,6.46
2023-04-25T02:40:17.441Z,6.46
2023-04-25T02:41:17.460Z,6.46
2023-04-25T02:42:17.415Z,6.44
2023-04-25T02:43:17.434Z,6.46
2023-04-25T02:44:17.390Z,6.48
2023-04-25T02:45:17.373Z,6.48
2023-04-25T02:46:22.920Z,6.48
2023-04-25T02:47:18.439Z,6.48
2023-04-25T02:48:17.382Z,6.48
2023-04-25T02:49:17.327Z,6.49
2023-04-25T02:50:17.308Z,6.49
2023-04-25T02:51:17.294Z,6.49
2023-04-25T02:52:17.309Z,6.52
2023-04-25T02:53:17.320Z,6.51
2023-04-25T02:54:17.256Z,6.51
2023-04-25T02:55:17.256Z,6.51
2023-04-25T02:56:17.228Z,6.52
2023-04-25T02:57:17.217Z,6.51
2023-04-25T02:58:17.264Z,6.51
2023-04-25T02:59:17.239Z,6.52
2023-04-25T03:00:17.188Z,6.52
2023-04-25T03:01:17.222Z,6.52
2023-04-25T03:02:17.166Z,6.51
2023-04-25T03:03:17.265Z,6.52
2023-04-25T03:04:17.163Z,6.52
2023-04-25T03:05:17.109Z,6.51
2023-04-25T03:06:17.116Z,6.49
2023-04-25T03:07:17.084Z,6.51
2023-04-25T03:08:17.065Z,6.49
2023-04-25T03:09:17.117Z,6.49
2023-04-25T03:10:17.044Z,6.49
2023-04-25T03:11:17.031Z,6.48
2023-04-25T03:12:17.018Z,6.48
2023-04-25T03:13:17.012Z,6.46
2023-04-25T03:14:16.989Z,6.46
2023-04-25T03:15:17.072Z,6.49
2023-04-25T03:16:16.988Z,6.49
2023-04-25T03:17:16.951Z,6.46
2023-04-25T03:18:16.948Z,6.46
2023-04-25T03:19:17.048Z,6.44
2023-04-25T03:20:16.924Z,6.46
2023-04-25T03:21:16.950Z,6.44
2023-04-25T03:22:16.889Z,6.44
2023-04-25T03:23:16.873Z,6.44
2023-04-25T03:24:16.861Z,6.44
2023-04-25T03:25:16.867Z,6.44
2023-04-25T03:26:16.889Z,6.43
2023-04-25T03:27:16.830Z,6.43
2023-04-25T03:28:16.816Z,6.41
2023-04-25T03:29:16.799Z,6.41
2023-04-25T03:30:16.785Z,6.41
2023-04-25T03:31:16.804Z,6.41
2023-04-25T03:32:16.757Z,6.41
2023-04-25T03:33:16.750Z,6.41
2023-04-25T03:34:16.738Z,6.40
2023-04-25T03:35:16.723Z,6.41
2023-04-25T03:36:16.767Z,6.41
2023-04-25T03:37:16.679Z,6.40
2023-04-25T03:38:16.675Z,6.41
2023-04-25T03:39:16.658Z,6.38
2023-04-25T03:40:16.650Z,6.37
2023-04-25T03:41:16.634Z,6.38
2023-04-25T03:42:16.661Z,6.37
2023-04-25T03:43:16.617Z,6.37
2023-04-25T03:44:16.600Z,6.37
2023-04-25T03:45:16.576Z,6.37
2023-04-25T03:46:16.628Z,6.37
2023-04-25T03:47:16.606Z,6.37
2023-04-25T03:48:16.586Z,6.37
2023-04-25T03:49:19.056Z,6.37
2023-04-25T03:50:16.509Z,6.38
2023-04-25T03:51:16.520Z,6.38
2023-04-25T03:52:16.556Z,6.37
2023-04-25T03:53:16.476Z,6.37
2023-04-25T03:54:16.466Z,6.37
2023-04-25T03:55:16.465Z,6.38
2023-04-25T03:56:16.439Z,6.37
2023-04-25T03:57:16.434Z,6.37
2023-04-25T03:58:16.451Z,6.37
2023-04-25T03:59:16.402Z,6.37
2023-04-25T04:00:16.395Z,6.37
2023-04-25T04:01:16.367Z,6.34
2023-04-25T04:02:16.489Z,6.36
2023-04-25T04:03:16.623Z,6.37
2023-04-25T04:04:16.600Z,6.36
2023-04-25T04:05:16.394Z,6.37
2023-04-25T04:06:16.312Z,6.36
2023-04-25T04:07:16.327Z,6.36
2023-04-25T04:08:16.281Z,6.36
2023-04-25T04:09:16.263Z,6.34
2023-04-25T04:10:16.276Z,6.33
2023-04-25T04:11:16.247Z,6.34
2023-04-25T04:12:16.236Z,6.36
2023-04-25T04:13:16.211Z,6.34
2023-04-25T04:14:16.275Z,6.34
2023-04-25T04:15:16.227Z,6.27
2023-04-25T04:16:16.223Z,6.19
2023-04-25T04:17:16.166Z,6.17
2023-04-25T04:18:16.158Z,6.11
2023-04-25T04:19:16.161Z,6.09
2023-04-25T04:20:16.121Z,6.04
2023-04-25T04:21:16.136Z,6.03
2023-04-25T04:22:16.101Z,6.01
2023-04-25T04:23:16.093Z,6.03
2023-04-25T04:24:16.079Z,6.03
2023-04-25T04:25:16.076Z,6.00
2023-04-25T04:26:16.040Z,5.99
2023-04-25T04:27:16.219Z,5.97
2023-04-25T04:28:16.025Z,5.93
2023-04-25T04:29:16.015Z,5.91
2023-04-25T04:30:16.030Z,5.89
2023-04-25T04:31:16.062Z,5.85
2023-04-25T04:32:15.989Z,5.86
2023-04-25T04:33:15.960Z,5.82
2023-04-25T04:34:15.934Z,5.81
2023-04-25T04:35:15.934Z,5.78
2023-04-25T04:36:15.922Z,5.78
2023-04-25T04:37:15.958Z,5.78
2023-04-25T04:38:15.900Z,5.79
2023-04-25T04:39:15.874Z,5.79
2023-04-25T04:40:15.860Z,5.76
2023-04-25T04:41:15.858Z,5.74
2023-04-25T04:42:15.841Z,5.68
2023-04-25T04:43:15.875Z,5.68
2023-04-25T04:44:15.810Z,5.67
2023-04-25T04:45:15.810Z,5.67
2023-04-25T04:46:15.830Z,5.65
2023-04-25T04:47:15.771Z,5.67
2023-04-25T04:48:15.815Z,5.67
2023-04-25T04:49:15.766Z,5.68
2023-04-25T04:50:15.757Z,5.68
2023-04-25T04:51:15.729Z,5.68
2023-04-25T04:52:15.710Z,5.71
2023-04-25T04:53:15.696Z,5.68
2023-04-25T04:54:15.727Z,5.67
2023-04-25T04:55:15.665Z,5.67
2023-04-25T04:56:15.685Z,5.67
2023-04-25T04:57:15.641Z,5.65
2023-04-25T04:58:17.479Z,5.65
2023-04-25T04:59:15.618Z,5.64
2023-04-25T05:00:15.628Z,5.65
2023-04-25T05:01:15.659Z,5.65
2023-04-25T05:02:15.614Z,5.65
2023-04-25T05:03:15.754Z,5.65
2023-04-25T05:04:15.632Z,5.64
2023-04-25T05:05:15.554Z,5.64
2023-04-25T05:06:15.553Z,5.64
2023-04-25T05:07:15.555Z,5.65
2023-04-25T05:08:15.497Z,5.65
2023-04-25T05:09:15.482Z,5.67
2023-04-25T05:10:15.471Z,5.65
2023-04-25T05:11:15.473Z,5.67
2023-04-25T05:12:15.452Z,5.67
2023-04-25T05:13:15.453Z,5.67
2023-04-25T05:14:15.449Z,5.67
2023-04-25T05:15:15.403Z,5.67
2023-04-25T05:16:15.426Z,5.67
2023-04-25T05:17:15.389Z,5.65
2023-04-25T05:18:15.435Z,5.65
2023-04-25T05:19:15.367Z,5.65
2023-04-25T05:20:15.371Z,5.65
2023-04-25T05:21:15.369Z,5.63
2023-04-25T05:22:15.311Z,5.64
2023-04-25T05:23:15.318Z,5.64
2023-04-25T05:24:15.297Z,5.65
2023-04-25T05:25:15.284Z,5.63
2023-04-25T05:26:15.354Z,5.64
2023-04-25T05:27:15.258Z,5.63
2023-04-25T05:28:15.230Z,5.64
2023-04-25T05:29:15.283Z,5.65
2023-04-25T05:30:15.213Z,5.65
2023-04-25T05:31:15.229Z,5.67
2023-04-25T05:32:15.284Z,5.67
2023-04-25T05:33:15.166Z,5.68
2023-04-25T05:34:15.171Z,5.71
2023-04-25T05:35:15.216Z,5.72
2023-04-25T05:36:15.130Z,5.75
2023-04-25T05:37:15.111Z,5.75
2023-04-25T05:38:15.118Z,5.76
2023-04-25T05:39:15.096Z,5.78
2023-04-25T05:40:15.126Z,5.81
2023-04-25T05:41:15.050Z,5.82
2023-04-25T05:42:15.040Z,5.85
2023-04-25T05:43:15.037Z,5.86
2023-04-25T05:44:15.035Z,5.90
2023-04-25T05:45:15.082Z,5.93
2023-04-25T05:46:15.021Z,5.94
2023-04-25T05:47:15.006Z,5.99
2023-04-25T05:48:15.028Z,6.01
2023-04-25T05:49:15.635Z,6.03
2023-04-25T05:50:14.949Z,6.06
2023-04-25T05:51:14.941Z,6.08
2023-04-25T05:52:14.922Z,6.11
2023-04-25T05:53:14.912Z,6.12
2023-04-25T05:54:14.885Z,6.15
2023-04-25T05:55:14.878Z,6.17
2023-04-25T05:56:14.891Z,6.21
2023-04-25T05:57:14.855Z,6.22
2023-04-25T05:58:14.840Z,6.28
2023-04-25T05:59:14.850Z,6.30
2023-04-25T06:00:14.813Z,6.33
2023-04-25T06:01:14.839Z,6.34
2023-04-25T06:02:14.889Z,6.37
2023-04-25T06:03:15.896Z,6.40
2023-04-25T06:04:14.954Z,6.41
2023-04-25T06:05:14.866Z,6.44
2023-04-25T06:06:14.741Z,6.46
2023-04-25T06:07:14.765Z,6.51
2023-04-25T06:08:14.716Z,6.52
2023-04-25T06:09:14.706Z,6.54
2023-04-25T06:10:14.701Z,6.56
2023-04-25T06:11:14.671Z,6.56
2023-04-25T06:12:14.686Z,6.58
2023-04-25T06:13:14.653Z,6.58
2023-04-25T06:14:14.638Z,6.59
2023-04-25T06:15:27.278Z,6.61
2023-04-25T06:16:15.656Z,6.66
2023-04-25T06:17:14.609Z,6.69
2023-04-25T06:18:14.612Z,6.70
2023-04-25T06:19:14.646Z,6.73
2023-04-25T06:20:14.557Z,6.74
2023-04-25T06:21:14.542Z,6.74
2023-04-25T06:22:14.556Z,6.79
2023-04-25T06:23:14.840Z,6.80
2023-04-25T06:24:14.492Z,6.81
2023-04-25T06:25:14.485Z,6.81
2023-04-25T06:26:14.467Z,6.81
2023-04-25T06:27:16.870Z,6.81
2023-04-25T06:28:14.445Z,6.81
2023-04-25T06:29:14.479Z,6.85
2023-04-25T06:30:14.415Z,6.88
2023-04-25T06:31:14.486Z,6.91
2023-04-25T06:32:14.384Z,6.91
2023-04-25T06:33:14.467Z,6.94
2023-04-25T06:34:14.345Z,6.92
2023-04-25T06:35:14.333Z,6.95
2023-04-25T06:36:14.360Z,6.99
2023-04-25T06:37:14.320Z,7.02
2023-04-25T06:38:14.378Z,7.06
2023-04-25T06:39:14.335Z,7.09
2023-04-25T06:40:14.300Z,7.10
2023-04-25T06:41:14.268Z,7.12
2023-04-25T06:42:14.268Z,7.12
2023-04-25T06:43:14.245Z,7.16
2023-04-25T06:44:14.259Z,7.21
2023-04-25T06:45:14.218Z,7.24
2023-04-25T06:46:14.236Z,7.28
2023-04-25T06:47:14.210Z,7.28
2023-04-25T06:48:14.191Z,7.32
2023-04-25T06:49:14.178Z,7.30
2023-04-25T06:50:14.193Z,7.31
2023-04-25T06:51:14.210Z,7.31
2023-04-25T06:52:14.127Z,7.34
2023-04-25T06:53:14.129Z,7.39
2023-04-25T06:54:14.127Z,7.42
2023-04-25T06:55:14.105Z,7.45
2023-04-25T06:56:14.089Z,7.46
2023-04-25T06:57:14.110Z,7.52
2023-04-25T06:58:14.088Z,7.57
2023-04-25T06:59:14.052Z,7.55
2023-04-25T07:00:14.029Z,7.57
2023-04-25T07:01:14.066Z,7.58
2023-04-25T07:02:14.120Z,7.61
2023-04-25T07:03:14.119Z,7.63
2023-04-25T07:04:14.320Z,7.68
2023-04-25T07:05:13.974Z,7.71
2023-04-25T07:06:13.966Z,7.71
2023-04-25T07:07:13.939Z,7.69
2023-04-25T07:08:13.959Z,7.68
2023-04-25T07:09:13.927Z,7.67
2023-04-25T07:10:13.898Z,7.68
2023-04-25T07:11:13.893Z,7.69
2023-04-25T07:12:13.864Z,7.67
2023-04-25T07:13:13.917Z,7.67
2023-04-25T07:14:13.844Z,7.63
2023-04-25T07:15:13.837Z,7.63
2023-04-25T07:16:13.875Z,7.60
2023-04-25T07:17:13.813Z,7.57
2023-04-25T07:18:13.795Z,7.52
2023-04-25T07:19:13.808Z,7.53
2023-04-25T07:20:13.794Z,7.52
2023-04-25T07:21:13.760Z,7.52
2023-04-25T07:22:13.745Z,7.53
2023-04-25T07:23:13.733Z,7.57
2023-04-25T07:24:13.719Z,7.58
2023-04-25T07:25:13.737Z,7.60
2023-04-25T07:26:13.701Z,7.63
2023-04-25T07:27:13.670Z,7.64
2023-04-25T07:28:13.665Z,7.67
2023-04-25T07:29:13.662Z,7.68
2023-04-25T07:30:13.643Z,7.68
2023-04-25T07:31:13.652Z,7.71
2023-04-25T07:32:13.654Z,7.74
2023-04-25T07:33:13.670Z,7.77
2023-04-25T07:34:13.597Z,7.77
2023-04-25T07:35:13.629Z,7.79
2023-04-25T07:36:13.595Z,7.80
2023-04-25T07:37:13.552Z,7.80
2023-04-25T07:38:13.541Z,7.83
2023-04-25T07:39:13.539Z,7.89
2023-04-25T07:40:13.512Z,7.93
2023-04-25T07:41:13.532Z,7.95
2023-04-25T07:42:13.505Z,8.01
2023-04-25T07:43:13.476Z,8.05
2023-04-25T07:44:13.456Z,8.11
2023-04-25T07:45:13.455Z,8.15
2023-04-25T07:46:13.529Z,8.19
2023-04-25T07:47:13.413Z,8.23
2023-04-25T07:48:13.394Z,8.25
2023-04-25T07:49:13.385Z,8.28
2023-04-25T07:50:13.368Z,8.29
2023-04-25T07:51:13.374Z,8.28
2023-04-25T07:52:13.396Z,8.29
2023-04-25T07:53:13.350Z,8.34
2023-04-25T07:54:13.334Z,8.37
2023-04-25T07:55:13.341Z,8.37
2023-04-25T07:56:13.285Z,8.40
2023-04-25T07:57:13.342Z,8.44
2023-04-25T07:58:13.316Z,8.44
2023-04-25T07:59:13.256Z,8.45
2023-04-25T08:00:13.240Z,8.47
2023-04-25T08:01:13.231Z,8.52
2023-04-25T08:02:13.244Z,8.58
2023-04-25T08:03:13.516Z,8.66
2023-04-25T08:04:13.324Z,8.71
2023-04-25T08:05:13.505Z,8.80
2023-04-25T08:06:13.364Z,8.84
2023-04-25T08:07:13.295Z,8.91
2023-04-25T08:08:13.147Z,9.04
2023-04-25T08:09:13.167Z,9.18
2023-04-25T08:10:13.132Z,9.28
2023-04-25T08:11:13.104Z,9.32
2023-04-25T08:12:13.099Z,9.33
2023-04-25T08:13:13.080Z,9.35
2023-04-25T08:14:13.058Z,9.35
2023-04-25T08:15:13.111Z,9.32
2023-04-25T08:16:13.056Z,9.35
2023-04-25T08:17:13.018Z,9.36
2023-04-25T08:18:14.181Z,9.39
2023-04-25T08:19:13.028Z,9.40
2023-04-25T08:20:13.002Z,9.42
2023-04-25T08:21:12.964Z,9.43
2023-04-25T08:22:12.957Z,9.38
2023-04-25T08:23:12.967Z,9.36
2023-04-25T08:24:12.951Z,9.35
2023-04-25T08:25:12.912Z,9.36
2023-04-25T08:26:12.926Z,9.35
2023-04-25T08:27:12.887Z,9.38
2023-04-25T08:28:12.885Z,9.35
2023-04-25T08:29:12.927Z,9.40
2023-04-25T08:30:12.872Z,9.42
2023-04-25T08:31:12.896Z,9.46
2023-04-25T08:32:12.824Z,9.51
2023-04-25T08:33:12.867Z,9.56
2023-04-25T08:34:12.793Z,9.61
2023-04-25T08:35:12.802Z,9.64
2023-04-25T08:36:12.766Z,9.69
2023-04-25T08:37:12.756Z,9.71
2023-04-25T08:38:12.753Z,9.72
2023-04-25T08:39:12.779Z,9.72
2023-04-25T08:40:12.794Z,9.74
2023-04-25T08:41:12.724Z,9.69
2023-04-25T08:42:12.734Z,9.66
2023-04-25T08:43:12.887Z,9.65
2023-04-25T08:44:12.669Z,9.61
2023-04-25T08:45:12.674Z,9.64
2023-04-25T08:46:12.657Z,9.64
2023-04-25T08:47:12.654Z,9.65
2023-04-25T08:48:12.649Z,9.64
2023-04-25T08:49:12.664Z,9.66
2023-04-25T08:50:12.580Z,9.66
2023-04-25T08:51:12.599Z,9.68
2023-04-25T08:52:12.557Z,9.68
2023-04-25T08:53:12.843Z,9.65
2023-04-25T08:54:23.342Z,9.65
2023-04-25T08:55:13.533Z,9.66
2023-04-25T08:56:12.541Z,9.69
2023-04-25T08:57:12.479Z,9.71
2023-04-25T08:58:12.463Z,9.79
2023-04-25T08:59:12.459Z,9.89
2023-04-25T09:00:12.430Z,9.93
2023-04-25T09:01:12.519Z,9.99
2023-04-25T09:02:12.467Z,10.09
2023-04-25T09:03:12.487Z,10.18
2023-04-25T09:04:12.563Z,10.32
2023-04-25T09:05:12.384Z,10.42
2023-04-25T09:06:12.419Z,10.61
2023-04-25T09:07:12.367Z,10.81
2023-04-25T09:08:12.350Z,10.96
2023-04-25T09:09:13.033Z,11.10
2023-04-25T09:10:12.327Z,11.25
2023-04-25T09:11:12.296Z,11.29
2023-04-25T09:12:12.350Z,11.43
2023-04-25T09:13:12.285Z,11.49
2023-04-25T09:14:12.283Z,11.55
2023-04-25T09:15:12.394Z,11.58
2023-04-25T09:16:12.269Z,11.52
2023-04-25T09:17:12.379Z,11.46
2023-04-25T09:18:12.233Z,11.40
2023-04-25T09:19:12.193Z,11.37
2023-04-25T09:20:12.195Z,11.36
2023-04-25T09:21:14.674Z,11.37
2023-04-25T09:22:12.179Z,11.36
2023-04-25T09:23:12.182Z,11.37
2023-04-25T09:24:12.129Z,11.42
2023-04-25T09:25:12.111Z,11.46
2023-04-25T09:26:12.096Z,11.51
2023-04-25T09:27:12.096Z,11.55
2023-04-25T09:28:12.128Z,11.49
2023-04-25T09:29:12.069Z,11.46
2023-04-25T09:30:12.062Z,11.40
2023-04-25T09:31:12.040Z,11.37
2023-04-25T09:32:12.137Z,11.29
2023-04-25T09:33:12.130Z,11.28
2023-04-25T09:34:11.991Z,11.25
2023-04-25T09:35:11.987Z,11.21
2023-04-25T09:36:12.089Z,11.22
2023-04-25T09:37:11.948Z,11.21
2023-04-25T09:38:11.960Z,11.10
2023-04-25T09:39:12.025Z,11.09
2023-04-25T09:40:11.924Z,11.09
2023-04-25T09:41:11.965Z,11.15
2023-04-25T09:42:11.893Z,11.22
2023-04-25T09:43:11.910Z,11.25
2023-04-25T09:44:11.860Z,11.25
2023-04-25T09:45:11.872Z,11.25
2023-04-25T09:46:11.875Z,11.25
2023-04-25T09:47:11.821Z,11.22
2023-04-25T09:48:11.879Z,11.17
2023-04-25T09:49:11.845Z,11.14
2023-04-25T09:50:11.787Z,11.15
2023-04-25T09:51:11.809Z,11.07
2023-04-25T09:52:11.775Z,10.99
2023-04-25T09:53:11.755Z,10.92
2023-04-25T09:54:11.740Z,10.94
2023-04-25T09:55:11.780Z,11.00
2023-04-25T09:56:11.726Z,11.10
2023-04-25T09:57:11.694Z,11.15
2023-04-25T09:58:11.699Z,11.22
2023-04-25T09:59:11.700Z,11.29
2023-04-25T10:00:11.661Z,11.37
2023-04-25T10:01:11.741Z,11.46
2023-04-25T10:02:11.663Z,11.55
2023-04-25T10:03:11.721Z,11.60
2023-04-25T10:04:11.691Z,11.64
2023-04-25T10:05:11.874Z,11.70
2023-04-25T10:06:11.583Z,11.65
2023-04-25T10:07:11.674Z,11.64
2023-04-25T10:08:11.591Z,11.62
2023-04-25T10:09:11.550Z,11.62
2023-04-25T10:10:11.595Z,11.60
2023-04-25T10:11:11.648Z,11.61
2023-04-25T10:12:11.515Z,11.78
2023-04-25T10:13:11.471Z,11.96
2023-04-25T10:14:12.408Z,12.17
2023-04-25T10:15:11.450Z,12.38
2023-04-25T10:16:11.558Z,12.62
2023-04-25T10:17:11.483Z,12.86
2023-04-25T10:21:49.024Z,13.52
2023-04-25T10:22:49.054Z,13.59
2023-04-25T10:23:49.121Z,13.67
2023-04-25T10:24:48.951Z,13.71
2023-04-25T10:25:48.932Z,13.67
2023-04-25T10:26:48.913Z,13.59
2023-04-25T10:27:48.899Z,13.22
2023-04-25T10:28:48.918Z,13.03
2023-04-25T10:29:48.893Z,12.86
2023-04-25T10:30:48.996Z,12.74
2023-04-25T10:31:48.875Z,12.39
2023-04-25T10:32:48.831Z,12.12
2023-04-25T10:33:48.999Z,12.01
2023-04-25T10:34:48.842Z,11.88
2023-04-25T10:35:48.844Z,11.79
2023-04-25T10:36:48.820Z,11.61
2023-04-25T10:37:48.766Z,11.49
2023-04-25T10:38:48.752Z,11.39
2023-04-25T10:39:48.747Z,11.35
2023-04-25T10:40:48.761Z,11.29
2023-04-25T10:41:48.739Z,11.28
2023-04-25T10:42:48.709Z,11.27
2023-04-25T10:43:48.809Z,11.25
2023-04-25T10:44:48.699Z,11.27
2023-04-25T10:45:48.707Z,11.27
2023-04-25T10:46:48.696Z,11.28
2023-04-25T10:47:48.671Z,11.28
2023-04-25T10:48:48.627Z,11.24
2023-04-25T10:49:48.681Z,11.22
2023-04-25T10:50:48.596Z,11.19
2023-04-25T10:51:55.420Z,11.18
2023-04-25T10:52:49.591Z,11.17
2023-04-25T10:53:48.913Z,11.15
2023-04-25T10:54:48.543Z,11.14
2023-04-25T10:55:48.585Z,11.15
2023-04-25T10:56:48.534Z,11.10
2023-04-25T10:57:48.542Z,11.10
2023-04-25T10:58:50.272Z,11.07
2023-04-25T10:59:48.484Z,11.06
2023-04-25T11:01:49.784Z,11.04
2023-04-25T11:02:48.607Z,11.00
2023-04-25T11:03:48.561Z,10.91
2023-04-25T11:04:48.588Z,10.84
2023-04-25T11:05:57.777Z,10.74
2023-04-25T11:06:50.781Z,10.67
2023-04-25T11:07:59.951Z,10.56
2023-04-25T11:08:49.548Z,10.51
2023-04-25T11:09:48.375Z,10.41
2023-04-25T11:10:50.181Z,10.34
2023-04-25T11:11:48.347Z,10.29
2023-04-25T11:12:48.308Z,10.20
2023-04-25T11:13:48.360Z,10.14
2023-04-25T11:14:48.325Z,10.11
2023-04-25T11:15:51.840Z,10.05
2023-04-25T11:16:49.283Z,10.01
2023-04-25T11:17:48.366Z,9.97
2023-04-25T11:18:48.291Z,9.90
2023-04-25T11:19:48.238Z,9.87
2023-04-25T11:20:48.233Z,9.79
2023-04-25T11:21:48.216Z,9.72
2023-04-25T11:22:49.392Z,9.66
2023-04-25T11:23:48.699Z,9.64
2023-04-25T11:24:48.181Z,9.65
2023-04-25T11:25:48.164Z,9.58
2023-04-25T11:26:48.128Z,9.56
2023-04-25T11:27:48.145Z,9.54
2023-04-25T11:28:48.144Z,9.54
2023-04-25T11:29:48.088Z,9.54
2023-04-25T11:30:48.106Z,9.51
2023-04-25T11:31:48.107Z,9.53
2023-04-25T11:32:48.125Z,9.53
2023-04-25T11:33:48.333Z,9.56
2023-04-25T11:34:48.142Z,9.57
2023-04-25T11:35:48.097Z,9.54
2023-04-25T11:36:48.039Z,9.56
2023-04-25T11:37:48.004Z,9.53
2023-04-25T11:38:47.991Z,9.54
2023-04-25T11:39:47.994Z,9.57
2023-04-25T11:40:47.965Z,9.65
2023-04-25T11:41:47.968Z,9.66
2023-04-25T11:42:47.950Z,9.69
2023-04-25T11:43:47.931Z,9.74
2023-04-25T11:44:47.908Z,9.83
2023-04-25T11:45:48.000Z,9.91
2023-04-25T11:46:47.886Z,9.90
2023-04-25T11:47:48.036Z,9.94
2023-04-25T11:48:48.142Z,10.01
2023-04-25T11:49:47.862Z,10.07
2023-04-25T11:50:47.892Z,10.22
2023-04-25T11:51:47.875Z,10.36
2023-04-25T11:52:47.794Z,10.42
2023-04-25T11:53:47.787Z,10.64
2023-04-25T11:54:47.774Z,10.86
2023-04-25T11:55:47.780Z,11.06
2023-04-25T11:56:47.756Z,11.32
2023-04-25T11:57:47.748Z,11.55
2023-04-25T11:58:47.742Z,11.83
2023-04-25T11:59:47.702Z,12.10
2023-04-25T12:01:20.257Z,12.27
2023-04-25T12:01:47.689Z,12.50
2023-04-25T12:02:47.883Z,12.74
2023-04-25T12:03:47.976Z,13.00
2023-04-25T12:04:47.766Z,13.19
2023-04-25T12:05:47.963Z,13.32
2023-04-25T12:06:47.755Z,13.52
2023-04-25T12:07:47.604Z,13.75
2023-04-25T12:08:47.839Z,13.95
2023-04-25T12:09:47.575Z,14.02
2023-04-25T12:10:47.546Z,13.99
2023-04-25T12:11:47.592Z,14.02
2023-04-25T12:12:47.547Z,13.99
2023-04-25T12:13:47.521Z,13.91
2023-04-25T12:14:47.505Z,13.89
2023-04-25T12:15:47.580Z,13.87
2023-04-25T12:16:47.503Z,13.87
2023-04-25T12:17:47.549Z,13.95
2023-04-25T12:18:47.493Z,13.96
2023-04-25T12:19:47.452Z,13.89
2023-04-25T12:20:47.512Z,13.97
2023-04-25T12:21:57.393Z,14.04
2023-04-25T12:22:48.474Z,14.06
2023-04-25T12:23:47.397Z,14.03
2023-04-25T12:24:47.389Z,14.04
2023-04-25T12:25:47.373Z,14.18
2023-04-25T12:26:47.381Z,14.28
2023-04-25T12:27:47.431Z,14.32
2023-04-25T12:28:47.345Z,14.24
2023-04-25T12:30:47.338Z,14.10
2023-04-25T12:31:47.330Z,13.96
2023-04-25T12:32:47.289Z,13.81
2023-04-25T12:33:47.289Z,13.62
2023-04-25T12:34:47.310Z,13.44
2023-04-25T12:35:47.245Z,13.23
2023-04-25T12:36:47.235Z,13.11
2023-04-25T12:37:47.222Z,13.01
2023-04-25T12:38:47.260Z,12.97
2023-04-25T12:39:47.202Z,12.96
2023-04-25T12:40:47.189Z,12.93
2023-04-25T12:41:47.210Z,12.93
2023-04-25T12:42:47.158Z,12.83
2023-04-25T12:43:47.169Z,12.74
2023-04-25T12:44:47.261Z,12.74
2023-04-25T12:45:47.117Z,12.68
2023-04-25T12:46:47.179Z,12.60
2023-04-25T12:47:47.188Z,12.53
2023-04-25T12:48:47.100Z,12.46
2023-04-25T12:49:47.070Z,12.42
2023-04-25T12:50:47.077Z,12.41
2023-04-25T12:51:47.050Z,12.45
2023-04-25T12:52:47.044Z,12.39
2023-04-25T12:53:47.051Z,12.46
2023-04-25T12:54:47.010Z,12.62
2023-04-25T12:55:47.035Z,12.64
2023-04-25T12:56:46.986Z,12.68
2023-04-25T12:57:46.977Z,12.64
2023-04-25T12:58:47.182Z,12.57
2023-04-25T12:59:46.945Z,12.59
2023-04-25T13:00:46.995Z,12.60
2023-04-25T13:01:46.978Z,12.65
2023-04-25T13:02:47.060Z,12.56
2023-04-25T13:03:47.095Z,12.42
2023-04-25T13:04:46.927Z,12.31
2023-04-25T13:05:46.869Z,12.24
2023-04-25T13:06:46.847Z,12.19
2023-04-25T13:07:46.835Z,12.14
2023-04-25T13:08:46.848Z,12.09
2023-04-25T13:09:47.723Z,11.83
2023-04-25T13:10:46.974Z,11.67
2023-04-25T13:11:46.803Z,11.60
2023-04-25T13:12:46.803Z,11.55
2023-04-25T13:13:46.760Z,11.47
2023-04-25T13:14:46.766Z,11.40
2023-04-25T13:15:46.742Z,11.36
2023-04-25T13:16:46.766Z,11.32